createdAt,value
2018-04-24T00:01:19.287Z,10.80
2018-04-24T00:03:46.715Z,10.80
2018-04-24T00:06:14.174Z,10.80
2018-04-24T00:08:42.356Z,10.70
2018-04-24T00:11:09.818Z,10.60
2018-04-24T00:13:37.988Z,10.60
2018-04-24T00:16:05.423Z,10.60
2018-04-24T00:18:32.928Z,10.60
2018-04-24T00:21:00.371Z,10.60
2018-04-24T00:23:27.831Z,10.50
2018-04-24T00:25:55.267Z,10.50
2018-04-24T00:28:22.751Z,10.50
2018-04-24T00:30:50.179Z,10.40
2018-04-24T00:33:17.667Z,10.40
2018-04-24T00:35:45.119Z,10.40
2018-04-24T00:38:12.539Z,10.40
2018-04-24T00:40:39.981Z,10.40
2018-04-24T00:43:08.167Z,10.40
2018-04-24T00:45:36.357Z,10.30
2018-04-24T00:48:03.835Z,10.30
2018-04-24T00:50:31.262Z,10.30
2018-04-24T00:52:58.704Z,10.30
2018-04-24T00:55:26.903Z,10.20
2018-04-24T00:57:54.334Z,10.20
2018-04-24T01:00:22.538Z,10.20
2018-04-24T01:02:49.978Z,10.20
2018-04-24T01:05:18.207Z,10.20
2018-04-24T01:07:45.632Z,10.20
2018-04-24T01:10:13.072Z,10.20
2018-04-24T01:12:41.274Z,10.20
2018-04-24T01:15:08.706Z,10.20
2018-04-24T01:17:36.143Z,10.20
2018-04-24T01:20:04.338Z,10.20
2018-04-24T01:22:31.778Z,10.20
2018-04-24T01:24:59.982Z,10.30
2018-04-24T01:27:27.450Z,10.30
2018-04-24T01:29:54.894Z,10.30
2018-04-24T01:32:22.366Z,10.30
2018-04-24T01:34:49.823Z,10.40
2018-04-24T01:37:17.259Z,10.40
2018-04-24T01:39:44.687Z,10.40
2018-04-24T01:42:12.111Z,10.50
2018-04-24T01:44:40.321Z,10.50
2018-04-24T01:47:07.818Z,10.50
2018-04-24T01:49:35.347Z,10.50
2018-04-24T01:52:02.759Z,10.50
2018-04-24T01:54:30.960Z,10.50
2018-04-24T01:56:58.407Z,10.40
2018-04-24T01:59:26.604Z,10.50
2018-04-24T02:01:54.098Z,10.40
2018-04-24T02:04:21.539Z,10.50
2018-04-24T02:06:48.967Z,10.50
2018-04-24T02:09:16.452Z,10.50
2018-04-24T02:11:43.928Z,10.50
2018-04-24T02:14:11.363Z,10.50
2018-04-24T02:16:38.914Z,10.50
2018-04-24T02:19:06.389Z,10.50
2018-04-24T02:21:33.813Z,10.50
2018-04-24T02:24:01.325Z,10.50
2018-04-24T02:26:28.729Z,10.50
2018-04-24T02:28:56.206Z,10.50
2018-04-24T02:31:23.675Z,10.50
2018-04-24T02:33:51.107Z,10.50
2018-04-24T02:36:18.605Z,10.50
2018-04-24T02:38:46.135Z,10.50
2018-04-24T02:41:13.622Z,10.50
2018-04-24T02:43:41.053Z,10.60
2018-04-24T02:46:08.484Z,10.60
2018-04-24T02:48:35.922Z,10.50
2018-04-24T02:51:03.352Z,10.50
2018-04-24T02:53:32.352Z,10.50
2018-04-24T02:55:59.871Z,10.50
2018-04-24T02:58:27.309Z,10.60
2018-04-24T03:00:54.792Z,10.60
2018-04-24T03:03:22.240Z,10.60
2018-04-24T03:05:49.678Z,10.60
2018-04-24T03:08:17.911Z,10.60
2018-04-24T03:10:46.851Z,10.60
2018-04-24T03:13:14.277Z,10.60
2018-04-24T03:15:41.699Z,10.60
2018-04-24T03:18:09.128Z,10.60
2018-04-24T03:20:36.595Z,10.60
2018-04-24T03:23:04.040Z,10.60
2018-04-24T03:25:31.470Z,10.60
2018-04-24T03:28:00.199Z,10.70
2018-04-24T03:30:27.632Z,10.70
2018-04-24T03:32:55.067Z,10.70
2018-04-24T03:35:23.267Z,10.70
2018-04-24T03:37:50.691Z,10.70
2018-04-24T03:40:18.130Z,10.70
2018-04-24T03:42:46.322Z,10.80
2018-04-24T03:45:13.764Z,10.80
2018-04-24T03:47:41.970Z,10.80
2018-04-24T03:50:09.406Z,10.80
2018-04-24T03:52:36.834Z,10.80
2018-04-24T03:55:05.061Z,10.80
2018-04-24T03:57:32.495Z,10.80
2018-04-24T04:00:00.710Z,10.80
2018-04-24T04:02:28.135Z,10.80
2018-04-24T04:04:55.587Z,10.80
2018-04-24T04:07:23.314Z,10.90
2018-04-24T04:09:50.748Z,10.90
2018-04-24T04:12:18.216Z,10.90
2018-04-24T04:14:45.643Z,10.90
2018-04-24T04:17:25.023Z,10.90
2018-04-24T04:20:04.239Z,10.90
2018-04-24T04:22:43.685Z,10.90
2018-04-24T04:25:11.111Z,10.90
2018-04-24T04:27:38.552Z,10.90
2018-04-24T04:30:05.980Z,10.90
2018-04-24T04:32:34.327Z,10.90
2018-04-24T04:35:02.071Z,11.00
2018-04-24T04:37:29.503Z,11.00
2018-04-24T04:39:56.931Z,11.00
2018-04-24T04:42:25.166Z,11.00
2018-04-24T04:44:52.599Z,11.00
2018-04-24T04:47:20.027Z,11.00
2018-04-24T04:49:48.242Z,11.00
2018-04-24T04:52:15.655Z,10.90
2018-04-24T04:54:43.870Z,11.00
2018-04-24T04:57:11.336Z,11.00
2018-04-24T04:59:38.811Z,11.00
2018-04-24T05:02:06.244Z,11.00
2018-04-24T05:04:33.707Z,11.00
2018-04-24T05:07:01.143Z,11.00
2018-04-24T05:09:28.623Z,11.00
2018-04-24T05:11:56.114Z,11.00
2018-04-24T05:14:23.555Z,11.00
2018-04-24T05:16:50.991Z,11.10
2018-04-24T05:19:18.460Z,11.10
2018-04-24T05:21:45.900Z,11.10
2018-04-24T05:24:13.350Z,11.10
2018-04-24T05:26:40.790Z,11.10
2018-04-24T05:29:08.991Z,11.20
2018-04-24T05:31:36.765Z,11.10
2018-04-24T05:34:04.230Z,11.20
2018-04-24T05:36:31.651Z,11.20
2018-04-24T05:38:59.087Z,11.20
2018-04-24T05:41:27.295Z,11.20
2018-04-24T05:43:54.750Z,11.20
2018-04-24T05:46:22.174Z,11.20
2018-04-24T05:48:50.412Z,11.20
2018-04-24T05:51:17.823Z,11.20
2018-04-24T05:53:45.623Z,11.20
2018-04-24T05:56:13.061Z,11.20
2018-04-24T05:58:40.583Z,11.20
2018-04-24T06:01:08.351Z,11.20
2018-04-24T06:03:35.807Z,11.20
2018-04-24T06:06:03.249Z,11.20
2018-04-24T06:08:30.729Z,11.30
2018-04-24T06:10:58.871Z,11.40
2018-04-24T06:13:26.299Z,11.40
2018-04-24T06:15:54.517Z,11.50
2018-04-24T06:18:21.979Z,11.50
2018-04-24T06:20:49.507Z,11.50
2018-04-24T06:23:16.956Z,11.60
2018-04-24T06:25:44.379Z,11.60
2018-04-24T06:28:12.570Z,11.70
2018-04-24T06:30:40.019Z,11.70
2018-04-24T06:33:08.227Z,11.70
2018-04-24T06:35:35.672Z,11.70
2018-04-24T06:38:03.166Z,11.80
2018-04-24T06:40:30.599Z,11.80
2018-04-24T06:42:58.067Z,11.90
2018-04-24T06:45:25.522Z,11.90
2018-04-24T06:47:53.043Z,12.00
2018-04-24T06:50:20.636Z,12.00
2018-04-24T06:52:48.063Z,12.00
2018-04-24T06:55:15.508Z,12.00
2018-04-24T06:57:43.727Z,12.00
2018-04-24T07:00:11.171Z,12.00
2018-04-24T07:02:38.629Z,12.10
2018-04-24T07:05:06.058Z,12.00
2018-04-24T07:07:33.512Z,12.00
2018-04-24T07:10:01.702Z,12.00
2018-04-24T07:12:29.181Z,12.00
2018-04-24T07:14:56.619Z,12.00
2018-04-24T07:17:24.059Z,12.00
2018-04-24T07:19:52.260Z,12.00
2018-04-24T07:22:19.819Z,11.90
2018-04-24T07:24:47.179Z,12.00
2018-04-24T07:27:14.716Z,12.00
2018-04-24T07:29:42.104Z,12.00
2018-04-24T07:32:09.575Z,12.00
2018-04-24T07:34:37.004Z,12.00
2018-04-24T07:37:04.470Z,12.10
2018-04-24T07:39:31.899Z,12.10
2018-04-24T07:41:59.394Z,12.10
2018-04-24T07:44:26.850Z,12.10
2018-04-24T07:46:54.370Z,12.10
2018-04-24T07:49:21.748Z,12.10
2018-04-24T07:51:49.220Z,12.10
2018-04-24T07:54:17.660Z,12.20
2018-04-24T07:56:45.875Z,12.10
2018-04-24T07:59:13.399Z,12.10
2018-04-24T08:01:40.891Z,12.10
2018-04-24T08:04:08.344Z,12.10
2018-04-24T08:06:35.792Z,12.20
2018-04-24T08:09:03.227Z,12.10
2018-04-24T08:11:30.659Z,12.10
2018-04-24T08:13:58.224Z,12.20
2018-04-24T08:16:25.650Z,12.20
2018-04-24T08:18:53.105Z,12.20
2018-04-24T08:21:20.546Z,12.20
2018-04-24T08:23:48.007Z,12.20
2018-04-24T08:26:15.464Z,12.20
2018-04-24T08:28:42.944Z,12.20
2018-04-24T08:31:10.375Z,12.30
2018-04-24T08:33:37.841Z,12.30
2018-04-24T08:36:05.281Z,12.30
2018-04-24T08:38:32.715Z,12.30
2018-04-24T08:41:00.151Z,12.30
2018-04-24T08:43:27.599Z,12.40
2018-04-24T08:45:55.039Z,12.50
2018-04-24T08:48:22.470Z,12.50
2018-04-24T08:50:49.918Z,12.50
2018-04-24T08:53:17.375Z,12.60
2018-04-24T08:55:44.940Z,12.60
2018-04-24T08:58:12.380Z,12.60
2018-04-24T09:00:39.807Z,12.60
2018-04-24T09:03:08.015Z,12.70
2018-04-24T09:05:35.488Z,12.70
2018-04-24T09:08:02.907Z,12.70
2018-04-24T09:10:31.127Z,12.70
2018-04-24T09:12:58.633Z,12.70
2018-04-24T09:15:26.859Z,12.70
2018-04-24T09:17:54.305Z,12.70
2018-04-24T09:20:21.749Z,12.70
2018-04-24T09:22:49.189Z,12.80
2018-04-24T09:25:17.503Z,12.80
2018-04-24T09:27:44.955Z,12.80
2018-04-24T09:30:12.391Z,12.80
2018-04-24T09:32:40.583Z,12.80
2018-04-24T09:35:08.033Z,12.80
2018-04-24T09:37:35.485Z,12.80
2018-04-24T09:40:02.928Z,12.70
2018-04-24T09:42:30.372Z,12.80
2018-04-24T09:44:57.835Z,12.80
2018-04-24T09:47:25.291Z,12.80
2018-04-24T09:49:52.762Z,12.90
2018-04-24T09:52:20.205Z,13.00
2018-04-24T09:54:47.640Z,13.10
2018-04-24T09:57:15.130Z,13.20
2018-04-24T09:59:42.621Z,13.40
2018-04-24T10:02:10.079Z,13.60
2018-04-24T10:04:37.518Z,13.80
2018-04-24T10:07:04.957Z,13.90
2018-04-24T10:09:32.410Z,14.10
2018-04-24T10:11:59.886Z,14.20
2018-04-24T10:14:27.333Z,14.40
2018-04-24T10:16:54.824Z,14.50
2018-04-24T10:19:22.267Z,14.50
2018-04-24T10:21:49.704Z,14.60
2018-04-24T10:24:17.180Z,14.70
2018-04-24T10:26:44.726Z,14.70
2018-04-24T10:29:12.174Z,14.90
2018-04-24T10:31:39.620Z,14.90
2018-04-24T10:34:07.055Z,15.00
2018-04-24T10:36:35.268Z,15.20
2018-04-24T10:39:02.699Z,15.20
2018-04-24T10:41:30.141Z,15.40
2018-04-24T10:43:58.346Z,15.70
2018-04-24T10:46:25.781Z,15.70
2018-04-24T10:48:53.313Z,15.90
2018-04-24T10:51:20.708Z,16.00
2018-04-24T10:53:48.146Z,16.00
2018-04-24T10:56:16.364Z,15.80
2018-04-24T10:58:43.851Z,15.80
2018-04-24T11:01:11.392Z,15.70
2018-04-24T11:03:38.891Z,15.50
2018-04-24T11:06:07.118Z,15.30
2018-04-24T11:08:34.572Z,15.30
2018-04-24T11:11:02.016Z,15.10
2018-04-24T11:13:29.503Z,15.00
2018-04-24T11:15:56.953Z,15.00
2018-04-24T11:18:24.387Z,15.00
2018-04-24T11:20:51.835Z,15.00
2018-04-24T11:23:19.278Z,15.00
2018-04-24T11:25:46.720Z,14.90
2018-04-24T11:28:15.371Z,14.90
2018-04-24T11:30:42.808Z,14.90
2018-04-24T11:33:10.263Z,14.90
2018-04-24T11:35:37.743Z,15.00
2018-04-24T11:38:05.151Z,15.20
2018-04-24T11:40:32.639Z,15.20
2018-04-24T11:43:00.203Z,15.20
2018-04-24T11:45:27.631Z,15.10
2018-04-24T11:47:55.063Z,15.00
2018-04-24T11:50:23.299Z,14.80
2018-04-24T11:52:50.729Z,14.80
2018-04-24T11:55:18.233Z,14.80
2018-04-24T11:57:45.646Z,14.80
2018-04-24T12:00:13.129Z,14.70
2018-04-24T12:02:40.592Z,14.70
2018-04-24T12:05:08.035Z,14.70
2018-04-24T12:07:35.473Z,14.70
2018-04-24T12:10:02.918Z,14.70
2018-04-24T12:12:31.109Z,14.70
2018-04-24T12:14:58.548Z,14.70
2018-04-24T12:17:26.043Z,14.70
2018-04-24T12:19:53.775Z,14.70
2018-04-24T12:22:21.260Z,15.00
2018-04-24T12:24:48.695Z,15.20
2018-04-24T12:27:16.127Z,15.40
2018-04-24T12:29:44.369Z,15.70
2018-04-24T12:32:11.805Z,15.70
2018-04-24T12:34:39.273Z,15.70
2018-04-24T12:37:06.710Z,15.80
2018-04-24T12:39:34.152Z,15.80
2018-04-24T12:42:01.592Z,15.90
2018-04-24T12:44:29.814Z,16.10
2018-04-24T12:46:57.267Z,16.10
2018-04-24T12:49:24.736Z,16.20
2018-04-24T12:51:52.281Z,16.30
2018-04-24T12:54:19.629Z,16.30
2018-04-24T12:56:47.054Z,16.40
2018-04-24T12:59:15.273Z,16.70
2018-04-24T13:01:42.712Z,16.60
2018-04-24T13:04:10.143Z,16.80
2018-04-24T13:06:38.344Z,16.90
2018-04-24T13:09:05.819Z,16.80
2018-04-24T13:11:33.279Z,16.70
2018-04-24T13:14:00.735Z,16.70
2018-04-24T13:16:28.179Z,16.80
2018-04-24T13:18:55.748Z,16.90
2018-04-24T13:21:23.215Z,17.00
2018-04-24T13:23:50.635Z,17.00
2018-04-24T13:26:18.109Z,16.90
2018-04-24T13:28:46.267Z,17.00
2018-04-24T13:31:13.735Z,17.00
2018-04-24T13:33:42.071Z,17.10
2018-04-24T13:36:09.503Z,17.10
2018-04-24T13:38:36.939Z,17.10
2018-04-24T13:41:04.373Z,17.20
2018-04-24T13:43:31.882Z,17.30
2018-04-24T13:45:59.340Z,17.60
2018-04-24T13:48:26.772Z,17.70
2018-04-24T13:50:54.207Z,17.80
2018-04-24T13:53:21.631Z,17.90
2018-04-24T13:55:49.856Z,17.90
2018-04-24T13:58:17.323Z,17.90
2018-04-24T14:00:44.769Z,17.90
2018-04-24T14:03:12.224Z,17.90
2018-04-24T14:05:39.657Z,18.00
2018-04-24T14:08:07.153Z,18.10
2018-04-24T14:10:34.618Z,18.10
2018-04-24T14:13:02.111Z,18.10
2018-04-24T14:15:29.527Z,18.10
2018-04-24T14:17:56.975Z,18.10
2018-04-24T14:20:24.426Z,18.10
2018-04-24T14:22:51.877Z,17.90
2018-04-24T14:25:19.312Z,17.70
2018-04-24T14:27:46.813Z,17.60
2018-04-24T14:30:14.267Z,17.60
2018-04-24T14:32:41.683Z,17.80
2018-04-24T14:35:09.128Z,17.90
2018-04-24T14:37:37.346Z,17.80
2018-04-24T14:40:04.798Z,17.80
2018-04-24T14:42:32.220Z,17.80
2018-04-24T14:45:00.491Z,17.60
2018-04-24T14:47:27.871Z,17.50
2018-04-24T14:49:55.297Z,17.40
2018-04-24T14:52:23.539Z,17.30
2018-04-24T14:54:50.973Z,17.30
2018-04-24T14:57:18.449Z,17.30
2018-04-24T14:59:45.885Z,17.30
2018-04-24T15:02:13.321Z,17.30
2018-04-24T15:04:41.545Z,17.20
2018-04-24T15:07:09.053Z,17.20
2018-04-24T15:09:36.434Z,17.20
2018-04-24T15:12:03.899Z,17.20
2018-04-24T15:14:32.233Z,17.20
2018-04-24T15:17:00.425Z,17.10
2018-04-24T15:19:27.864Z,17.10
2018-04-24T15:21:56.187Z,17.20
2018-04-24T15:24:23.684Z,17.10
2018-04-24T15:26:51.199Z,17.20
2018-04-24T15:29:18.631Z,17.20
2018-04-24T15:31:46.118Z,17.20
2018-04-24T15:34:13.575Z,17.30
2018-04-24T15:36:41.026Z,17.30
2018-04-24T15:39:08.470Z,17.30
2018-04-24T15:41:35.967Z,17.30
2018-04-24T15:44:03.411Z,17.30
2018-04-24T15:46:30.875Z,17.30
2018-04-24T15:48:58.319Z,17.30
2018-04-24T15:51:25.753Z,17.30
2018-04-24T15:53:53.248Z,17.30
2018-04-24T15:56:20.791Z,17.30
2018-04-24T15:58:48.249Z,17.30
2018-04-24T16:01:15.707Z,17.30
2018-04-24T16:03:43.216Z,17.30
2018-04-24T16:06:10.637Z,17.30
2018-04-24T16:08:38.083Z,17.30
2018-04-24T16:11:05.650Z,17.20
2018-04-24T16:13:33.114Z,17.20
2018-04-24T16:16:00.535Z,17.20
2018-04-24T16:18:28.024Z,17.10
2018-04-24T16:20:55.463Z,17.10
2018-04-24T16:23:22.915Z,17.00
2018-04-24T16:25:50.368Z,17.00
2018-04-24T16:28:17.804Z,16.90
2018-04-24T16:30:45.242Z,16.80
2018-04-24T16:33:13.446Z,16.80
2018-04-24T16:35:40.976Z,16.70
2018-04-24T16:38:09.111Z,16.60
2018-04-24T16:40:36.572Z,16.60
2018-04-24T16:43:04.017Z,16.60
2018-04-24T16:45:31.465Z,16.50
2018-04-24T16:47:58.919Z,16.50
2018-04-24T16:50:26.377Z,16.50
2018-04-24T16:52:53.831Z,16.50
2018-04-24T16:55:21.296Z,16.50
2018-04-24T16:57:48.715Z,16.50
2018-04-24T17:00:16.938Z,16.40
2018-04-24T17:02:44.376Z,16.40
2018-04-24T17:05:11.927Z,16.40
2018-04-24T17:07:39.376Z,16.30
2018-04-24T17:10:07.578Z,16.30
2018-04-24T17:12:35.044Z,16.30
2018-04-24T17:15:02.519Z,16.30
2018-04-24T17:17:29.966Z,16.40
2018-04-24T17:19:57.405Z,16.40
2018-04-24T17:22:24.834Z,16.30
2018-04-24T17:24:53.034Z,16.40
2018-04-24T17:27:20.467Z,16.30
2018-04-24T17:29:48.674Z,16.40
2018-04-24T17:32:16.119Z,16.40
2018-04-24T17:34:43.578Z,16.40
2018-04-24T17:37:11.088Z,16.40
2018-04-24T17:39:38.514Z,16.40
2018-04-24T17:42:06.034Z,16.40
2018-04-24T17:44:33.616Z,16.30
2018-04-24T17:47:01.180Z,16.30
2018-04-24T17:49:28.655Z,16.30
2018-04-24T17:51:56.089Z,16.30
2018-04-24T17:54:23.550Z,16.20
2018-04-24T17:56:50.987Z,16.20
2018-04-24T17:59:18.428Z,16.10
2018-04-24T18:01:46.648Z,16.00
2018-04-24T18:04:14.107Z,16.10
2018-04-24T18:06:41.572Z,16.00
2018-04-24T18:09:09.023Z,16.00
2018-04-24T18:11:36.541Z,15.90
2018-04-24T18:14:03.905Z,16.00
2018-04-24T18:16:31.355Z,15.90
2018-04-24T18:18:58.840Z,15.90
2018-04-24T18:21:26.286Z,15.90
2018-04-24T18:23:53.727Z,15.80
2018-04-24T18:26:21.247Z,15.80
2018-04-24T18:28:48.677Z,15.70
2018-04-24T18:31:16.120Z,15.70
2018-04-24T18:33:43.621Z,15.70
2018-04-24T18:36:11.280Z,15.60
2018-04-24T18:38:40.525Z,15.60
2018-04-24T18:41:08.801Z,15.60
2018-04-24T18:43:36.249Z,15.50
2018-04-24T18:46:03.813Z,15.50
2018-04-24T18:48:32.035Z,15.50
2018-04-24T18:50:59.587Z,15.50
2018-04-24T18:53:27.107Z,15.50
2018-04-24T18:55:55.504Z,15.40
2018-04-24T18:58:23.001Z,15.40
2018-04-24T19:00:51.348Z,15.40
2018-04-24T19:03:18.803Z,15.40
2018-04-24T19:05:46.264Z,15.40
2018-04-24T19:08:13.703Z,15.40
2018-04-24T19:10:41.163Z,15.40
2018-04-24T19:13:08.667Z,15.40
2018-04-24T19:15:36.159Z,15.40
2018-04-24T19:18:03.599Z,15.30
2018-04-24T19:20:31.037Z,15.30
2018-04-24T19:22:59.252Z,15.30
2018-04-24T19:25:32.299Z,15.30
2018-04-24T19:28:00.530Z,15.30
2018-04-24T19:30:27.994Z,15.30
2018-04-24T19:32:55.440Z,15.20
2018-04-24T19:35:22.924Z,15.20
2018-04-24T19:37:50.365Z,15.20
2018-04-24T19:40:23.583Z,15.20
2018-04-24T19:42:51.124Z,15.20
2018-04-24T19:45:18.671Z,15.20
2018-04-24T19:47:46.219Z,15.20
2018-04-24T19:50:17.650Z,15.20
2018-04-24T19:52:45.856Z,15.10
2018-04-24T19:55:18.992Z,15.10
2018-04-24T19:57:46.415Z,15.10
2018-04-24T20:00:13.915Z,15.10
2018-04-24T20:02:42.307Z,15.10
2018-04-24T20:05:09.811Z,15.10
2018-04-24T20:07:37.283Z,15.00
2018-04-24T20:10:04.738Z,15.00
2018-04-24T20:12:32.182Z,15.00
2018-04-24T20:14:59.610Z,15.10
2018-04-24T20:17:27.060Z,15.00
2018-04-24T20:19:54.632Z,15.00
2018-04-24T20:22:22.107Z,15.00
2018-04-24T20:24:49.548Z,15.00
2018-04-24T20:27:17.020Z,15.00
2018-04-24T20:29:44.511Z,14.90
2018-04-24T20:32:11.946Z,14.90
2018-04-24T20:34:39.391Z,14.90
2018-04-24T20:37:06.838Z,14.90
2018-04-24T20:39:34.291Z,14.90
2018-04-24T20:42:01.762Z,14.90
2018-04-24T20:44:29.303Z,14.90
2018-04-24T20:46:56.798Z,14.90
2018-04-24T20:49:24.337Z,14.90
2018-04-24T20:51:51.781Z,14.90
2018-04-24T20:54:19.257Z,14.90
2018-04-24T20:56:46.784Z,14.90
2018-04-24T20:59:14.216Z,14.90
2018-04-24T21:01:41.651Z,14.90
2018-04-24T21:04:09.115Z,14.90
2018-04-24T21:06:36.547Z,14.80
2018-04-24T21:09:04.020Z,14.80
2018-04-24T21:11:31.559Z,14.80
2018-04-24T21:13:59.011Z,14.80
2018-04-24T21:16:26.442Z,14.80
2018-04-24T21:18:53.940Z,14.80
2018-04-24T21:21:21.384Z,14.80
2018-04-24T21:23:48.844Z,14.80
2018-04-24T21:26:16.299Z,14.80
2018-04-24T21:28:43.761Z,14.80
2018-04-24T21:31:11.319Z,14.80
2018-04-24T21:33:38.775Z,14.80
2018-04-24T21:36:06.213Z,14.80
2018-04-24T21:38:33.675Z,14.80
2018-04-24T21:41:01.107Z,14.80
2018-04-24T21:43:28.544Z,14.80
2018-04-24T21:45:55.979Z,14.80
2018-04-24T21:48:23.427Z,14.80
2018-04-24T21:50:50.868Z,14.80
2018-04-24T21:53:18.320Z,14.80
2018-04-24T21:55:45.759Z,14.80
2018-04-24T21:58:13.239Z,14.80
2018-04-24T22:00:40.685Z,14.80
2018-04-24T22:03:08.122Z,14.80
2018-04-24T22:05:35.562Z,14.80
2018-04-24T22:08:03.789Z,14.80
2018-04-24T22:10:31.245Z,14.80
2018-04-24T22:12:58.690Z,14.80
2018-04-24T22:15:26.183Z,14.80
2018-04-24T22:17:53.722Z,14.80
2018-04-24T22:20:21.160Z,14.80
2018-04-24T22:22:48.637Z,14.80
2018-04-24T22:25:16.063Z,14.80
2018-04-24T22:27:43.550Z,14.80
2018-04-24T22:30:11.017Z,14.80
2018-04-24T22:32:38.465Z,14.80
2018-04-24T22:35:05.930Z,14.80
2018-04-24T22:37:33.350Z,14.80
2018-04-24T22:40:00.791Z,14.80
2018-04-24T22:42:28.999Z,14.70
2018-04-24T22:44:56.438Z,14.80
2018-04-24T22:47:23.935Z,14.80
2018-04-24T22:49:51.483Z,14.70
2018-04-24T22:52:18.939Z,14.70
2018-04-24T22:54:46.367Z,14.70
2018-04-24T22:57:13.807Z,14.70
2018-04-24T22:59:42.015Z,14.70
2018-04-24T23:02:09.509Z,14.60
2018-04-24T23:04:37.044Z,14.70
2018-04-24T23:07:04.495Z,14.70
2018-04-24T23:09:31.931Z,14.70
2018-04-24T23:12:11.308Z,14.70
2018-04-24T23:14:50.590Z,14.70
2018-04-24T23:17:30.023Z,14.60
2018-04-24T23:20:10.129Z,14.60
2018-04-24T23:22:40.470Z,14.60
2018-04-24T23:25:08.003Z,14.60
2018-04-24T23:27:35.430Z,14.60
2018-04-24T23:30:02.870Z,14.60
2018-04-24T23:32:31.091Z,14.60
2018-04-24T23:34:58.561Z,14.60
2018-04-24T23:37:26.003Z,14.60
2018-04-24T23:39:53.494Z,14.60
2018-04-24T23:42:20.943Z,14.60
2018-04-24T23:44:48.374Z,14.60
2018-04-24T23:47:15.839Z,14.60
2018-04-24T23:49:43.281Z,14.60
2018-04-24T23:52:10.716Z,14.60
2018-04-24T23:54:38.154Z,14.60
2018-04-24T23:57:06.461Z,14.50
2018-04-24T23:59:33.904Z,14.50
